sensor_id;sensor_type;location;lat;lon;timestamp;P1;durP1;ratioP1;P2;durP2;ratioP2
18190;SDS011;47004;51.366;12.348;2023-12-20T00:02:00;15.17;;;6.80;;
18190;SDS011;47004;51.366;12.348;2023-12-20T00:04:02;13.73;;;6.57;;
18190;SDS011;47004;51.366;12.348;2023-12-20T00:06:04;14.47;;;6.90;;
18190;SDS011;47004;51.366;12.348;2023-12-20T00:08:06;14.57;;;6.57;;
18190;SDS011;47004;51.366;12.348;2023-12-20T00:10:08;13.87;;;6.93;;
18190;SDS011;47004;51.366;12.348;2023-12-20T00:12:09;13.30;;;6.00;;
18190;SDS011;47004;51.366;12.348;2023-12-20T00:14:13;15.97;;;6.87;;
18190;SDS011;47004;51.366;12.348;2023-12-20T00:16:15;12.93;;;6.67;;
18190;SDS011;47004;51.366;12.348;2023-12-20T00:18:17;11.47;;;6.17;;
18190;SDS011;47004;51.366;12.348;2023-12-20T00:20:19;12.33;;;6.40;;
18190;SDS011;47004;51.366;12.348;2023-12-20T00:22:20;14.17;;;6.53;;
18190;SDS011;47004;51.366;12.348;2023-12-20T00:24:22;12.60;;;5.97;;
18190;SDS011;47004;51.366;12.348;2023-12-20T00:26:24;13.60;;;5.97;;
18190;SDS011;47004;51.366;12.348;2023-12-20T00:28:28;13.27;;;6.40;;
18190;SDS011;47004;51.366;12.348;2023-12-20T00:30:31;14.77;;;6.40;;
18190;SDS011;47004;51.366;12.348;2023-12-20T00:32:34;15.87;;;5.90;;
18190;SDS011;47004;51.366;12.348;2023-12-20T00:34:36;15.23;;;6.40;;
18190;SDS011;47004;51.366;12.348;2023-12-20T00:36:38;11.53;;;5.50;;
18190;SDS011;47004;51.366;12.348;2023-12-20T00:38:40;13.83;;;5.87;;
18190;SDS011;47004;51.366;12.348;2023-12-20T00:40:41;12.00;;;5.60;;
18190;SDS011;47004;51.366;12.348;2023-12-20T00:42:43;11.20;;;5.27;;
18190;SDS011;47004;51.366;12.348;2023-12-20T00:44:47;11.80;;;5.73;;
18190;SDS011;47004;51.366;12.348;2023-12-20T00:46:52;11.10;;;4.77;;
18190;SDS011;47004;51.366;12.348;2023-12-20T00:48:54;11.03;;;5.30;;
18190;SDS011;47004;51.366;12.348;2023-12-20T00:50:55;10.87;;;5.73;;
18190;SDS011;47004;51.366;12.348;2023-12-20T00:52:58;9.90;;;4.97;;
18190;SDS011;47004;51.366;12.348;2023-12-20T00:54:59;8.70;;;4.47;;
18190;SDS011;47004;51.366;12.348;2023-12-20T00:57:01;9.03;;;4.70;;
18190;SDS011;47004;51.366;12.348;2023-12-20T00:59:03;11.00;;;5.03;;
18190;SDS011;47004;51.366;12.348;2023-12-20T01:01:05;12.40;;;5.17;;
18190;SDS011;47004;51.366;12.348;2023-12-20T01:03:09;9.03;;;4.50;;
18190;SDS011;47004;51.366;12.348;2023-12-20T01:05:10;10.53;;;4.70;;
18190;SDS011;47004;51.366;12.348;2023-12-20T01:07:12;12.13;;;4.97;;
18190;SDS011;47004;51.366;12.348;2023-12-20T01:09:14;9.40;;;4.93;;
18190;SDS011;47004;51.366;12.348;2023-12-20T01:11:15;10.00;;;4.63;;
18190;SDS011;47004;51.366;12.348;2023-12-20T01:13:16;7.17;;;3.97;;
18190;SDS011;47004;51.366;12.348;2023-12-20T01:15:18;10.67;;;4.57;;
18190;SDS011;47004;51.366;12.348;2023-12-20T01:17:20;11.17;;;4.43;;
18190;SDS011;47004;51.366;12.348;2023-12-20T01:19:24;9.73;;;4.33;;
18190;SDS011;47004;51.366;12.348;2023-12-20T01:21:25;8.90;;;4.23;;
18190;SDS011;47004;51.366;12.348;2023-12-20T01:23:27;8.93;;;3.87;;
18190;SDS011;47004;51.366;12.348;2023-12-20T01:25:29;7.80;;;4.00;;
18190;SDS011;47004;51.366;12.348;2023-12-20T01:27:31;9.77;;;4.10;;
18190;SDS011;47004;51.366;12.348;2023-12-20T01:29:32;8.20;;;4.17;;
18190;SDS011;47004;51.366;12.348;2023-12-20T01:31:34;10.27;;;3.93;;
18190;SDS011;47004;51.366;12.348;2023-12-20T01:33:36;8.93;;;3.97;;
18190;SDS011;47004;51.366;12.348;2023-12-20T01:35:39;7.20;;;3.73;;
18190;SDS011;47004;51.366;12.348;2023-12-20T01:37:41;7.53;;;3.90;;
18190;SDS011;47004;51.366;12.348;2023-12-20T01:39:43;7.80;;;3.83;;
18190;SDS011;47004;51.366;12.348;2023-12-20T01:41:45;9.37;;;4.03;;
18190;SDS011;47004;51.366;12.348;2023-12-20T01:43:47;7.20;;;3.80;;
18190;SDS011;47004;51.366;12.348;2023-12-20T01:45:48;6.70;;;3.47;;
18190;SDS011;47004;51.366;12.348;2023-12-20T01:47:51;6.50;;;3.50;;
18190;SDS011;47004;51.366;12.348;2023-12-20T01:49:52;7.00;;;3.53;;
18190;SDS011;47004;51.366;12.348;2023-12-20T01:51:58;7.47;;;3.90;;
18190;SDS011;47004;51.366;12.348;2023-12-20T01:54:00;6.80;;;3.57;;
18190;SDS011;47004;51.366;12.348;2023-12-20T01:56:03;7.10;;;3.33;;
18190;SDS011;47004;51.366;12.348;2023-12-20T01:58:04;6.87;;;3.27;;
18190;SDS011;47004;51.366;12.348;2023-12-20T02:00:07;6.07;;;3.20;;
18190;SDS011;47004;51.366;12.348;2023-12-20T02:02:10;7.97;;;3.03;;
18190;SDS011;47004;51.366;12.348;2023-12-20T02:04:13;6.73;;;3.20;;
18190;SDS011;47004;51.366;12.348;2023-12-20T02:06:15;6.37;;;3.37;;
18190;SDS011;47004;51.366;12.348;2023-12-20T02:08:20;6.07;;;3.33;;
18190;SDS011;47004;51.366;12.348;2023-12-20T02:10:23;5.40;;;3.10;;
18190;SDS011;47004;51.366;12.348;2023-12-20T02:12:24;7.47;;;3.60;;
18190;SDS011;47004;51.366;12.348;2023-12-20T02:14:29;8.77;;;3.47;;
18190;SDS011;47004;51.366;12.348;2023-12-20T02:16:30;7.33;;;3.60;;
18190;SDS011;47004;51.366;12.348;2023-12-20T02:18:32;6.53;;;3.20;;
18190;SDS011;47004;51.366;12.348;2023-12-20T02:20:34;6.47;;;3.30;;
18190;SDS011;47004;51.366;12.348;2023-12-20T02:22:36;6.03;;;3.20;;
18190;SDS011;47004;51.366;12.348;2023-12-20T02:24:38;5.30;;;2.90;;
18190;SDS011;47004;51.366;12.348;2023-12-20T02:26:40;7.10;;;3.40;;
18190;SDS011;47004;51.366;12.348;2023-12-20T02:28:42;6.33;;;3.13;;
18190;SDS011;47004;51.366;12.348;2023-12-20T02:30:44;6.43;;;3.60;;
18190;SDS011;47004;51.366;12.348;2023-12-20T02:32:45;6.60;;;3.07;;
18190;SDS011;47004;51.366;12.348;2023-12-20T02:34:48;7.17;;;3.37;;
18190;SDS011;47004;51.366;12.348;2023-12-20T02:36:50;8.90;;;3.40;;
18190;SDS011;47004;51.366;12.348;2023-12-20T02:38:53;6.30;;;3.00;;
18190;SDS011;47004;51.366;12.348;2023-12-20T02:40:54;7.83;;;3.57;;
18190;SDS011;47004;51.366;12.348;2023-12-20T02:42:56;6.47;;;3.30;;
18190;SDS011;47004;51.366;12.348;2023-12-20T02:44:58;6.57;;;3.13;;
18190;SDS011;47004;51.366;12.348;2023-12-20T02:47:00;8.13;;;3.60;;
18190;SDS011;47004;51.366;12.348;2023-12-20T02:49:02;6.37;;;3.50;;
18190;SDS011;47004;51.366;12.348;2023-12-20T02:51:04;5.27;;;2.90;;
18190;SDS011;47004;51.366;12.348;2023-12-20T02:53:06;5.33;;;3.30;;
18190;SDS011;47004;51.366;12.348;2023-12-20T02:55:09;8.60;;;3.50;;
18190;SDS011;47004;51.366;12.348;2023-12-20T02:57:13;6.87;;;3.80;;
18190;SDS011;47004;51.366;12.348;2023-12-20T02:59:16;12.70;;;3.90;;
18190;SDS011;47004;51.366;12.348;2023-12-20T03:01:18;8.73;;;3.33;;
18190;SDS011;47004;51.366;12.348;2023-12-20T03:03:20;6.10;;;3.27;;
18190;SDS011;47004;51.366;12.348;2023-12-20T03:05:22;8.83;;;3.77;;
18190;SDS011;47004;51.366;12.348;2023-12-20T03:07:24;7.43;;;3.47;;
18190;SDS011;47004;51.366;12.348;2023-12-20T03:09:26;6.80;;;3.40;;
18190;SDS011;47004;51.366;12.348;2023-12-20T03:11:29;7.63;;;3.67;;
18190;SDS011;47004;51.366;12.348;2023-12-20T03:13:31;7.33;;;3.70;;
18190;SDS011;47004;51.366;12.348;2023-12-20T03:15:33;7.43;;;3.83;;
18190;SDS011;47004;51.366;12.348;2023-12-20T03:17:35;7.40;;;3.50;;
18190;SDS011;47004;51.366;12.348;2023-12-20T03:19:37;7.20;;;3.93;;
18190;SDS011;47004;51.366;12.348;2023-12-20T03:21:39;6.77;;;3.53;;
18190;SDS011;47004;51.366;12.348;2023-12-20T03:23:40;7.07;;;4.03;;
18190;SDS011;47004;51.366;12.348;2023-12-20T03:25:43;8.83;;;4.47;;
18190;SDS011;47004;51.366;12.348;2023-12-20T03:27:45;6.87;;;3.87;;
18190;SDS011;47004;51.366;12.348;2023-12-20T03:29:47;9.50;;;4.10;;
18190;SDS011;47004;51.366;12.348;2023-12-20T03:31:49;7.80;;;3.70;;
18190;SDS011;47004;51.366;12.348;2023-12-20T03:33:51;8.43;;;3.73;;
18190;SDS011;47004;51.366;12.348;2023-12-20T03:35:53;7.57;;;3.90;;
18190;SDS011;47004;51.366;12.348;2023-12-20T03:37:55;8.63;;;3.93;;
18190;SDS011;47004;51.366;12.348;2023-12-20T03:40:00;10.47;;;3.90;;
18190;SDS011;47004;51.366;12.348;2023-12-20T03:42:02;8.63;;;4.30;;
18190;SDS011;47004;51.366;12.348;2023-12-20T03:44:06;7.93;;;4.03;;
18190;SDS011;47004;51.366;12.348;2023-12-20T03:46:07;8.30;;;4.10;;
18190;SDS011;47004;51.366;12.348;2023-12-20T03:48:09;8.27;;;4.30;;
18190;SDS011;47004;51.366;12.348;2023-12-20T03:50:10;10.33;;;4.73;;
18190;SDS011;47004;51.366;12.348;2023-12-20T03:52:11;11.80;;;4.73;;
18190;SDS011;47004;51.366;12.348;2023-12-20T03:54:13;11.23;;;4.87;;
18190;SDS011;47004;51.366;12.348;2023-12-20T03:56:14;9.97;;;4.80;;
18190;SDS011;47004;51.366;12.348;2023-12-20T03:58:16;11.37;;;5.37;;
18190;SDS011;47004;51.366;12.348;2023-12-20T04:00:20;14.20;;;5.77;;
18190;SDS011;47004;51.366;12.348;2023-12-20T04:02:21;13.07;;;5.80;;
18190;SDS011;47004;51.366;12.348;2023-12-20T04:04:22;12.40;;;5.93;;
18190;SDS011;47004;51.366;12.348;2023-12-20T04:06:24;14.87;;;6.80;;
18190;SDS011;47004;51.366;12.348;2023-12-20T04:08:26;15.17;;;6.53;;
18190;SDS011;47004;51.366;12.348;2023-12-20T04:10:28;14.33;;;6.60;;
18190;SDS011;47004;51.366;12.348;2023-12-20T04:12:29;15.73;;;6.90;;
18190;SDS011;47004;51.366;12.348;2023-12-20T04:14:31;13.43;;;6.43;;
18190;SDS011;47004;51.366;12.348;2023-12-20T04:16:34;13.77;;;6.90;;
18190;SDS011;47004;51.366;12.348;2023-12-20T04:18:36;18.30;;;6.60;;
18190;SDS011;47004;51.366;12.348;2023-12-20T04:20:38;20.00;;;7.77;;
18190;SDS011;47004;51.366;12.348;2023-12-20T04:22:40;18.50;;;6.57;;
18190;SDS011;47004;51.366;12.348;2023-12-20T04:24:42;14.37;;;6.70;;
18190;SDS011;47004;51.366;12.348;2023-12-20T04:26:44;14.43;;;6.77;;
18190;SDS011;47004;51.366;12.348;2023-12-20T04:28:47;16.67;;;7.10;;
18190;SDS011;47004;51.366;12.348;2023-12-20T04:30:48;14.80;;;6.50;;
18190;SDS011;47004;51.366;12.348;2023-12-20T04:32:51;17.93;;;6.97;;
18190;SDS011;47004;51.366;12.348;2023-12-20T04:34:53;17.40;;;7.03;;
18190;SDS011;47004;51.366;12.348;2023-12-20T04:36:55;17.17;;;6.80;;
18190;SDS011;47004;51.366;12.348;2023-12-20T04:38:57;13.40;;;6.00;;
18190;SDS011;47004;51.366;12.348;2023-12-20T04:40:58;16.57;;;6.37;;
18190;SDS011;47004;51.366;12.348;2023-12-20T04:43:00;17.30;;;6.90;;
18190;SDS011;47004;51.366;12.348;2023-12-20T04:45:02;14.07;;;5.90;;
18190;SDS011;47004;51.366;12.348;2023-12-20T04:47:04;14.73;;;6.20;;
18190;SDS011;47004;51.366;12.348;2023-12-20T04:49:07;15.30;;;6.27;;
18190;SDS011;47004;51.366;12.348;2023-12-20T04:51:09;18.57;;;6.70;;
18190;SDS011;47004;51.366;12.348;2023-12-20T04:53:10;17.17;;;6.57;;
18190;SDS011;47004;51.366;12.348;2023-12-20T04:55:12;15.43;;;6.37;;
18190;SDS011;47004;51.366;12.348;2023-12-20T04:57:14;14.50;;;6.13;;
18190;SDS011;47004;51.366;12.348;2023-12-20T04:59:16;13.87;;;6.53;;
18190;SDS011;47004;51.366;12.348;2023-12-20T05:01:18;14.83;;;6.73;;
18190;SDS011;47004;51.366;12.348;2023-12-20T05:03:18;17.00;;;6.43;;
18190;SDS011;47004;51.366;12.348;2023-12-20T05:05:22;19.27;;;7.03;;
18190;SDS011;47004;51.366;12.348;2023-12-20T05:07:24;13.73;;;6.10;;
18190;SDS011;47004;51.366;12.348;2023-12-20T05:09:24;16.17;;;6.60;;
18190;SDS011;47004;51.366;12.348;2023-12-20T05:11:26;16.53;;;6.43;;
18190;SDS011;47004;51.366;12.348;2023-12-20T05:13:27;11.10;;;5.70;;
18190;SDS011;47004;51.366;12.348;2023-12-20T05:15:29;18.40;;;6.60;;
18190;SDS011;47004;51.366;12.348;2023-12-20T05:17:31;16.47;;;6.47;;
18190;SDS011;47004;51.366;12.348;2023-12-20T05:19:32;14.23;;;6.47;;
18190;SDS011;47004;51.366;12.348;2023-12-20T05:21:36;15.57;;;6.80;;
18190;SDS011;47004;51.366;12.348;2023-12-20T05:23:38;14.57;;;6.83;;
18190;SDS011;47004;51.366;12.348;2023-12-20T05:25:39;18.23;;;7.13;;
18190;SDS011;47004;51.366;12.348;2023-12-20T05:27:41;15.30;;;7.07;;
18190;SDS011;47004;51.366;12.348;2023-12-20T05:29:43;18.53;;;7.20;;
18190;SDS011;47004;51.366;12.348;2023-12-20T05:31:45;16.80;;;6.90;;
18190;SDS011;47004;51.366;12.348;2023-12-20T05:33:46;15.27;;;6.93;;
18190;SDS011;47004;51.366;12.348;2023-12-20T05:35:48;15.80;;;6.97;;
18190;SDS011;47004;51.366;12.348;2023-12-20T05:37:52;18.07;;;7.20;;
18190;SDS011;47004;51.366;12.348;2023-12-20T05:39:53;17.90;;;7.23;;
18190;SDS011;47004;51.366;12.348;2023-12-20T05:41:55;15.17;;;6.57;;
18190;SDS011;47004;51.366;12.348;2023-12-20T05:43:58;15.40;;;6.70;;
18190;SDS011;47004;51.366;12.348;2023-12-20T05:46:02;13.93;;;7.03;;
18190;SDS011;47004;51.366;12.348;2023-12-20T05:48:05;15.07;;;6.73;;
18190;SDS011;47004;51.366;12.348;2023-12-20T05:50:07;12.57;;;6.10;;
18190;SDS011;47004;51.366;12.348;2023-12-20T05:52:09;14.50;;;6.60;;
18190;SDS011;47004;51.366;12.348;2023-12-20T05:54:11;13.20;;;5.97;;
18190;SDS011;47004;51.366;12.348;2023-12-20T05:56:13;13.57;;;5.90;;
18190;SDS011;47004;51.366;12.348;2023-12-20T05:58:15;15.07;;;5.80;;
18190;SDS011;47004;51.366;12.348;2023-12-20T06:00:17;12.43;;;5.73;;
18190;SDS011;47004;51.366;12.348;2023-12-20T06:02:21;15.23;;;6.23;;
18190;SDS011;47004;51.366;12.348;2023-12-20T06:04:23;13.63;;;5.93;;
18190;SDS011;47004;51.366;12.348;2023-12-20T06:06:25;11.83;;;6.00;;
18190;SDS011;47004;51.366;12.348;2023-12-20T06:08:27;13.27;;;6.10;;
18190;SDS011;47004;51.366;12.348;2023-12-20T06:10:29;13.63;;;6.00;;
18190;SDS011;47004;51.366;12.348;2023-12-20T06:12:31;15.03;;;5.53;;
18190;SDS011;47004;51.366;12.348;2023-12-20T06:14:35;12.27;;;5.80;;
18190;SDS011;47004;51.366;12.348;2023-12-20T06:16:37;14.50;;;5.97;;
18190;SDS011;47004;51.366;12.348;2023-12-20T06:18:39;13.30;;;5.53;;
18190;SDS011;47004;51.366;12.348;2023-12-20T06:20:41;15.10;;;6.00;;
18190;SDS011;47004;51.366;12.348;2023-12-20T06:22:42;13.67;;;6.30;;
18190;SDS011;47004;51.366;12.348;2023-12-20T06:24:44;12.30;;;5.60;;
18190;SDS011;47004;51.366;12.348;2023-12-20T06:26:47;18.67;;;6.80;;
18190;SDS011;47004;51.366;12.348;2023-12-20T06:28:49;13.93;;;5.73;;
18190;SDS011;47004;51.366;12.348;2023-12-20T06:30:51;12.40;;;5.20;;
18190;SDS011;47004;51.366;12.348;2023-12-20T06:32:54;12.40;;;5.80;;
18190;SDS011;47004;51.366;12.348;2023-12-20T06:34:57;14.83;;;6.30;;
18190;SDS011;47004;51.366;12.348;2023-12-20T06:36:59;14.23;;;6.57;;
18190;SDS011;47004;51.366;12.348;2023-12-20T06:39:00;16.73;;;7.00;;
18190;SDS011;47004;51.366;12.348;2023-12-20T06:41:04;18.43;;;7.77;;
18190;SDS011;47004;51.366;12.348;2023-12-20T06:43:08;17.27;;;7.17;;
18190;SDS011;47004;51.366;12.348;2023-12-20T06:45:10;19.80;;;8.03;;
18190;SDS011;47004;51.366;12.348;2023-12-20T06:47:14;15.07;;;7.27;;
18190;SDS011;47004;51.366;12.348;2023-12-20T06:49:16;16.30;;;7.60;;
18190;SDS011;47004;51.366;12.348;2023-12-20T06:51:17;17.53;;;7.93;;
18190;SDS011;47004;51.366;12.348;2023-12-20T06:53:20;20.57;;;7.77;;
18190;SDS011;47004;51.366;12.348;2023-12-20T06:55:22;13.70;;;6.30;;
18190;SDS011;47004;51.366;12.348;2023-12-20T06:57:23;12.57;;;5.80;;
18190;SDS011;47004;51.366;12.348;2023-12-20T06:59:27;9.83;;;5.60;;
18190;SDS011;47004;51.366;12.348;2023-12-20T07:01:29;11.17;;;5.53;;
18190;SDS011;47004;51.366;12.348;2023-12-20T07:03:31;14.97;;;5.27;;
18190;SDS011;47004;51.366;12.348;2023-12-20T07:05:32;9.33;;;4.80;;
18190;SDS011;47004;51.366;12.348;2023-12-20T07:07:34;10.67;;;4.10;;
18190;SDS011;47004;51.366;12.348;2023-12-20T07:09:35;13.33;;;4.90;;
18190;SDS011;47004;51.366;12.348;2023-12-20T07:11:38;10.17;;;4.80;;
18190;SDS011;47004;51.366;12.348;2023-12-20T07:13:40;13.00;;;5.20;;
18190;SDS011;47004;51.366;12.348;2023-12-20T07:15:43;12.67;;;4.53;;
18190;SDS011;47004;51.366;12.348;2023-12-20T07:17:45;10.27;;;5.00;;
18190;SDS011;47004;51.366;12.348;2023-12-20T07:19:47;11.60;;;4.50;;
18190;SDS011;47004;51.366;12.348;2023-12-20T07:21:49;10.43;;;4.67;;
18190;SDS011;47004;51.366;12.348;2023-12-20T07:23:51;9.13;;;3.97;;
18190;SDS011;47004;51.366;12.348;2023-12-20T07:25:53;9.87;;;3.97;;
18190;SDS011;47004;51.366;12.348;2023-12-20T07:27:55;10.87;;;4.30;;
18190;SDS011;47004;51.366;12.348;2023-12-20T07:29:57;9.83;;;3.40;;
18190;SDS011;47004;51.366;12.348;2023-12-20T07:32:00;9.13;;;3.67;;
18190;SDS011;47004;51.366;12.348;2023-12-20T07:34:02;9.97;;;4.17;;
18190;SDS011;47004;51.366;12.348;2023-12-20T07:36:03;11.17;;;3.80;;
18190;SDS011;47004;51.366;12.348;2023-12-20T07:38:05;8.70;;;3.27;;
18190;SDS011;47004;51.366;12.348;2023-12-20T07:40:10;9.30;;;3.60;;
18190;SDS011;47004;51.366;12.348;2023-12-20T07:42:12;12.23;;;3.50;;
18190;SDS011;47004;51.366;12.348;2023-12-20T07:44:14;8.43;;;3.30;;
18190;SDS011;47004;51.366;12.348;2023-12-20T07:46:16;9.10;;;3.40;;
18190;SDS011;47004;51.366;12.348;2023-12-20T07:48:20;7.80;;;3.43;;
18190;SDS011;47004;51.366;12.348;2023-12-20T07:50:22;10.73;;;3.40;;
18190;SDS011;47004;51.366;12.348;2023-12-20T07:52:24;8.97;;;3.33;;
18190;SDS011;47004;51.366;12.348;2023-12-20T07:54:27;6.23;;;3.03;;
18190;SDS011;47004;51.366;12.348;2023-12-20T07:56:28;12.67;;;2.80;;
18190;SDS011;47004;51.366;12.348;2023-12-20T07:58:30;5.97;;;2.80;;
18190;SDS011;47004;51.366;12.348;2023-12-20T08:00:32;7.77;;;2.57;;
18190;SDS011;47004;51.366;12.348;2023-12-20T08:02:34;8.17;;;2.30;;
18190;SDS011;47004;51.366;12.348;2023-12-20T08:04:37;7.67;;;2.70;;
18190;SDS011;47004;51.366;12.348;2023-12-20T08:06:41;6.63;;;2.33;;
18190;SDS011;47004;51.366;12.348;2023-12-20T08:08:42;8.13;;;2.17;;
18190;SDS011;47004;51.366;12.348;2023-12-20T08:10:43;6.17;;;2.20;;
18190;SDS011;47004;51.366;12.348;2023-12-20T08:12:45;4.37;;;2.20;;
18190;SDS011;47004;51.366;12.348;2023-12-20T08:14:47;12.07;;;3.20;;
18190;SDS011;47004;51.366;12.348;2023-12-20T08:16:49;6.53;;;2.47;;
18190;SDS011;47004;51.366;12.348;2023-12-20T08:18:51;7.80;;;2.17;;
18190;SDS011;47004;51.366;12.348;2023-12-20T08:20:55;5.17;;;2.10;;
18190;SDS011;47004;51.366;12.348;2023-12-20T08:22:56;4.43;;;2.00;;
18190;SDS011;47004;51.366;12.348;2023-12-20T08:24:58;3.93;;;1.93;;
18190;SDS011;47004;51.366;12.348;2023-12-20T08:26:59;8.23;;;2.33;;
18190;SDS011;47004;51.366;12.348;2023-12-20T08:29:01;5.40;;;1.90;;
18190;SDS011;47004;51.366;12.348;2023-12-20T08:31:04;12.73;;;2.30;;
18190;SDS011;47004;51.366;12.348;2023-12-20T08:33:06;5.33;;;2.07;;
18190;SDS011;47004;51.366;12.348;2023-12-20T08:35:11;4.43;;;1.73;;
18190;SDS011;47004;51.366;12.348;2023-12-20T08:37:13;6.50;;;1.77;;
18190;SDS011;47004;51.366;12.348;2023-12-20T08:39:15;11.43;;;2.97;;
18190;SDS011;47004;51.366;12.348;2023-12-20T08:41:17;5.17;;;1.93;;
18190;SDS011;47004;51.366;12.348;2023-12-20T08:43:20;5.93;;;2.27;;
18190;SDS011;47004;51.366;12.348;2023-12-20T08:45:22;8.37;;;1.83;;
18190;SDS011;47004;51.366;12.348;2023-12-20T08:47:24;7.43;;;2.17;;
18190;SDS011;47004;51.366;12.348;2023-12-20T08:49:26;6.80;;;2.00;;
18190;SDS011;47004;51.366;12.348;2023-12-20T08:51:29;5.17;;;2.00;;
18190;SDS011;47004;51.366;12.348;2023-12-20T08:53:32;8.70;;;1.97;;
18190;SDS011;47004;51.366;12.348;2023-12-20T08:55:34;6.07;;;1.80;;
18190;SDS011;47004;51.366;12.348;2023-12-20T08:57:35;11.63;;;2.67;;
18190;SDS011;47004;51.366;12.348;2023-12-20T08:59:37;4.57;;;2.13;;
18190;SDS011;47004;51.366;12.348;2023-12-20T09:01:39;6.57;;;2.30;;
18190;SDS011;47004;51.366;12.348;2023-12-20T09:03:41;5.53;;;2.40;;
18190;SDS011;47004;51.366;12.348;2023-12-20T09:05:43;8.00;;;2.23;;
18190;SDS011;47004;51.366;12.348;2023-12-20T09:07:44;4.03;;;2.20;;
18190;SDS011;47004;51.366;12.348;2023-12-20T09:09:47;9.17;;;2.90;;
18190;SDS011;47004;51.366;12.348;2023-12-20T09:11:49;9.70;;;2.30;;
18190;SDS011;47004;51.366;12.348;2023-12-20T09:13:52;9.67;;;2.47;;
18190;SDS011;47004;51.366;12.348;2023-12-20T09:15:54;7.60;;;2.40;;
18190;SDS011;47004;51.366;12.348;2023-12-20T09:17:56;7.13;;;2.60;;
18190;SDS011;47004;51.366;12.348;2023-12-20T09:19:58;4.53;;;2.27;;
18190;SDS011;47004;51.366;12.348;2023-12-20T09:22:00;5.60;;;2.43;;
18190;SDS011;47004;51.366;12.348;2023-12-20T09:24:03;7.57;;;2.63;;
18190;SDS011;47004;51.366;12.348;2023-12-20T09:26:06;7.83;;;3.03;;
18190;SDS011;47004;51.366;12.348;2023-12-20T09:28:09;8.20;;;3.00;;
18190;SDS011;47004;51.366;12.348;2023-12-20T09:30:11;9.63;;;2.27;;
18190;SDS011;47004;51.366;12.348;2023-12-20T09:32:14;7.20;;;2.27;;
18190;SDS011;47004;51.366;12.348;2023-12-20T09:34:16;9.27;;;2.80;;
18190;SDS011;47004;51.366;12.348;2023-12-20T09:36:17;20.67;;;6.57;;
18190;SDS011;47004;51.366;12.348;2023-12-20T09:38:19;9.17;;;2.90;;
18190;SDS011;47004;51.366;12.348;2023-12-20T09:40:20;8.33;;;2.50;;
18190;SDS011;47004;51.366;12.348;2023-12-20T09:42:33;6.03;;;2.73;;
18190;SDS011;47004;51.366;12.348;2023-12-20T09:44:44;6.60;;;2.37;;
18190;SDS011;47004;51.366;12.348;2023-12-20T09:46:49;6.47;;;2.60;;
18190;SDS011;47004;51.366;12.348;2023-12-20T09:48:54;9.23;;;2.80;;
18190;SDS011;47004;51.366;12.348;2023-12-20T09:50:56;11.87;;;2.97;;
18190;SDS011;47004;51.366;12.348;2023-12-20T09:52:58;6.13;;;2.70;;
18190;SDS011;47004;51.366;12.348;2023-12-20T09:55:03;7.63;;;2.53;;
18190;SDS011;47004;51.366;12.348;2023-12-20T09:57:09;10.60;;;3.20;;
18190;SDS011;47004;51.366;12.348;2023-12-20T09:59:13;6.97;;;3.37;;
18190;SDS011;47004;51.366;12.348;2023-12-20T10:01:17;5.77;;;2.83;;
18190;SDS011;47004;51.366;12.348;2023-12-20T10:03:21;6.23;;;2.83;;
18190;SDS011;47004;51.366;12.348;2023-12-20T10:05:27;14.17;;;3.57;;
18190;SDS011;47004;51.366;12.348;2023-12-20T10:07:28;6.50;;;2.57;;
18190;SDS011;47004;51.366;12.348;2023-12-20T10:09:31;9.47;;;3.40;;
18190;SDS011;47004;51.366;12.348;2023-12-20T10:11:34;9.47;;;3.50;;
18190;SDS011;47004;51.366;12.348;2023-12-20T10:13:39;9.03;;;3.33;;
18190;SDS011;47004;51.366;12.348;2023-12-20T10:15:42;9.23;;;2.87;;
18190;SDS011;47004;51.366;12.348;2023-12-20T10:17:44;5.83;;;2.70;;
18190;SDS011;47004;51.366;12.348;2023-12-20T10:19:49;11.60;;;3.20;;
18190;SDS011;47004;51.366;12.348;2023-12-20T10:21:51;7.90;;;2.83;;
18190;SDS011;47004;51.366;12.348;2023-12-20T10:23:53;10.30;;;2.77;;
18190;SDS011;47004;51.366;12.348;2023-12-20T10:25:57;5.33;;;2.40;;
18190;SDS011;47004;51.366;12.348;2023-12-20T10:28:09;4.30;;;2.27;;
18190;SDS011;47004;51.366;12.348;2023-12-20T10:30:13;8.10;;;2.30;;
18190;SDS011;47004;51.366;12.348;2023-12-20T10:32:23;8.13;;;2.57;;
18190;SDS011;47004;51.366;12.348;2023-12-20T10:34:26;7.67;;;2.90;;
18190;SDS011;47004;51.366;12.348;2023-12-20T10:36:28;8.13;;;3.17;;
18190;SDS011;47004;51.366;12.348;2023-12-20T10:38:31;7.37;;;2.10;;
18190;SDS011;47004;51.366;12.348;2023-12-20T10:40:34;7.47;;;2.20;;
18190;SDS011;47004;51.366;12.348;2023-12-20T10:42:37;12.07;;;2.10;;
18190;SDS011;47004;51.366;12.348;2023-12-20T10:44:42;6.90;;;2.33;;
18190;SDS011;47004;51.366;12.348;2023-12-20T10:46:43;9.63;;;2.50;;
18190;SDS011;47004;51.366;12.348;2023-12-20T10:48:52;6.67;;;2.27;;
18190;SDS011;47004;51.366;12.348;2023-12-20T10:50:55;8.83;;;2.10;;
18190;SDS011;47004;51.366;12.348;2023-12-20T10:52:57;5.73;;;2.30;;
18190;SDS011;47004;51.366;12.348;2023-12-20T10:54:59;7.07;;;2.20;;
18190;SDS011;47004;51.366;12.348;2023-12-20T10:57:01;5.87;;;1.80;;
18190;SDS011;47004;51.366;12.348;2023-12-20T10:59:07;5.83;;;2.00;;
18190;SDS011;47004;51.366;12.348;2023-12-20T11:01:12;7.80;;;2.50;;
18190;SDS011;47004;51.366;12.348;2023-12-20T11:03:15;7.03;;;2.13;;
18190;SDS011;47004;51.366;12.348;2023-12-20T11:05:26;7.87;;;2.00;;
18190;SDS011;47004;51.366;12.348;2023-12-20T11:07:35;10.53;;;1.90;;
18190;SDS011;47004;51.366;12.348;2023-12-20T11:09:43;5.63;;;2.10;;
18190;SDS011;47004;51.366;12.348;2023-12-20T11:12:02;8.53;;;2.10;;
18190;SDS011;47004;51.366;12.348;2023-12-20T11:14:08;6.43;;;2.00;;
18190;SDS011;47004;51.366;12.348;2023-12-20T11:16:16;4.10;;;1.53;;
18190;SDS011;47004;51.366;12.348;2023-12-20T11:18:18;5.30;;;1.77;;
18190;SDS011;47004;51.366;12.348;2023-12-20T11:20:19;6.23;;;1.80;;
18190;SDS011;47004;51.366;12.348;2023-12-20T11:22:25;7.73;;;1.73;;
18190;SDS011;47004;51.366;12.348;2023-12-20T11:24:28;10.17;;;2.03;;
18190;SDS011;47004;51.366;12.348;2023-12-20T11:26:33;4.10;;;1.53;;
18190;SDS011;47004;51.366;12.348;2023-12-20T11:28:35;6.17;;;1.70;;
18190;SDS011;47004;51.366;12.348;2023-12-20T11:30:40;7.97;;;1.83;;
18190;SDS011;47004;51.366;12.348;2023-12-20T11:32:44;5.50;;;1.80;;
18190;SDS011;47004;51.366;12.348;2023-12-20T11:34:47;8.77;;;1.93;;
18190;SDS011;47004;51.366;12.348;2023-12-20T11:36:50;5.37;;;1.60;;
18190;SDS011;47004;51.366;12.348;2023-12-20T11:39:00;4.30;;;1.60;;
18190;SDS011;47004;51.366;12.348;2023-12-20T11:41:06;9.20;;;1.90;;
18190;SDS011;47004;51.366;12.348;2023-12-20T11:43:08;10.90;;;1.80;;
18190;SDS011;47004;51.366;12.348;2023-12-20T11:45:10;7.20;;;1.80;;
18190;SDS011;47004;51.366;12.348;2023-12-20T11:47:12;8.73;;;1.80;;
18190;SDS011;47004;51.366;12.348;2023-12-20T11:49:22;10.60;;;2.03;;
18190;SDS011;47004;51.366;12.348;2023-12-20T11:51:25;7.13;;;2.10;;
18190;SDS011;47004;51.366;12.348;2023-12-20T11:53:27;6.33;;;1.87;;
18190;SDS011;47004;51.366;12.348;2023-12-20T11:55:30;8.67;;;2.10;;
18190;SDS011;47004;51.366;12.348;2023-12-20T11:57:33;9.93;;;2.33;;
18190;SDS011;47004;51.366;12.348;2023-12-20T11:59:37;7.47;;;1.80;;
18190;SDS011;47004;51.366;12.348;2023-12-20T12:01:39;9.70;;;1.97;;
18190;SDS011;47004;51.366;12.348;2023-12-20T12:03:41;11.20;;;1.77;;